San Perlita, Texas
Current Conditions -  °F | °C
As of 3:52 PM on Saturday 25 Oct 2014 (Local Time) from KHRL Reporting Station
Clear Clear  
Wind Chill: 85°   Ceiling: Unl
Heat Index: 87°   Visibility: 10mi
Dew Point: 66°   Wind: 9mph
Humidity: 53%   Direction: 80°E
Pressure: 30.07"   Gusts: NA
Location:  26.5°N, 97.64°W
Report Text: KHRL 252052Z 08008KT 10SM CLR 29/19 A3007 RMK AO2 SLP182 T02940189 56021
Loading
Personal Weather Stations






























Interactive Weather Map New forecast layout! Learn more

10-Day Weather Forecast

Advertisements
Track Severe Weather on mobile